sensor_id;sensor_type;location;lat;lon;timestamp;P1;durP1;ratioP1;P2;durP2;ratioP2
36817;SDS011;22761;51.542;16.450;2022-10-31T00:01:21;13.30;;;8.60;;
36817;SDS011;22761;51.542;16.450;2022-10-31T00:03:48;13.87;;;8.10;;
36817;SDS011;22761;51.542;16.450;2022-10-31T00:06:16;12.00;;;8.60;;
36817;SDS011;22761;51.542;16.450;2022-10-31T00:08:47;12.87;;;8.50;;
36817;SDS011;22761;51.542;16.450;2022-10-31T00:11:22;10.77;;;8.13;;
36817;SDS011;22761;51.542;16.450;2022-10-31T00:13:50;17.33;;;8.43;;
36817;SDS011;22761;51.542;16.450;2022-10-31T00:16:22;12.57;;;7.63;;
36817;SDS011;22761;51.542;16.450;2022-10-31T00:18:51;12.17;;;7.37;;
36817;SDS011;22761;51.542;16.450;2022-10-31T00:21:23;13.40;;;8.20;;
36817;SDS011;22761;51.542;16.450;2022-10-31T00:23:52;14.97;;;8.17;;
36817;SDS011;22761;51.542;16.450;2022-10-31T00:26:19;11.37;;;8.13;;
36817;SDS011;22761;51.542;16.450;2022-10-31T00:28:47;11.50;;;7.70;;
36817;SDS011;22761;51.542;16.450;2022-10-31T00:31:16;10.43;;;7.27;;
36817;SDS011;22761;51.542;16.450;2022-10-31T00:33:43;12.57;;;7.93;;
36817;SDS011;22761;51.542;16.450;2022-10-31T00:36:15;12.50;;;8.07;;
36817;SDS011;22761;51.542;16.450;2022-10-31T00:38:46;12.00;;;8.03;;
36817;SDS011;22761;51.542;16.450;2022-10-31T00:41:15;17.83;;;8.57;;
36817;SDS011;22761;51.542;16.450;2022-10-31T00:46:12;11.67;;;9.00;;
36817;SDS011;22761;51.542;16.450;2022-10-31T00:48:40;13.80;;;8.40;;
36817;SDS011;22761;51.542;16.450;2022-10-31T00:51:08;15.70;;;9.87;;
36817;SDS011;22761;51.542;16.450;2022-10-31T00:53:36;16.17;;;9.27;;
36817;SDS011;22761;51.542;16.450;2022-10-31T00:56:04;12.87;;;8.90;;
36817;SDS011;22761;51.542;16.450;2022-10-31T00:58:32;14.13;;;9.47;;
36817;SDS011;22761;51.542;16.450;2022-10-31T01:00:59;17.03;;;9.97;;
36817;SDS011;22761;51.542;16.450;2022-10-31T01:03:28;17.37;;;9.87;;
36817;SDS011;22761;51.542;16.450;2022-10-31T01:06:08;15.83;;;10.03;;
36817;SDS011;22761;51.542;16.450;2022-10-31T01:08:38;17.35;;;10.28;;
36817;SDS011;22761;51.542;16.450;2022-10-31T01:13:40;15.43;;;10.67;;
36817;SDS011;22761;51.542;16.450;2022-10-31T01:16:10;16.97;;;11.17;;
36817;SDS011;22761;51.542;16.450;2022-10-31T01:18:40;14.47;;;9.37;;
36817;SDS011;22761;51.542;16.450;2022-10-31T01:21:09;15.10;;;10.03;;
36817;SDS011;22761;51.542;16.450;2022-10-31T01:23:39;16.57;;;10.30;;
36817;SDS011;22761;51.542;16.450;2022-10-31T01:26:08;15.17;;;10.53;;
36817;SDS011;22761;51.542;16.450;2022-10-31T01:28:44;14.57;;;9.53;;
36817;SDS011;22761;51.542;16.450;2022-10-31T01:31:17;12.97;;;9.07;;
36817;SDS011;22761;51.542;16.450;2022-10-31T01:33:46;15.60;;;9.80;;
36817;SDS011;22761;51.542;16.450;2022-10-31T01:38:48;18.80;;;10.97;;
36817;SDS011;22761;51.542;16.450;2022-10-31T01:41:24;21.97;;;11.65;;
36817;SDS011;22761;51.542;16.450;2022-10-31T01:43:58;16.60;;;10.97;;
36817;SDS011;22761;51.542;16.450;2022-10-31T01:46:42;17.45;;;11.48;;
36817;SDS011;22761;51.542;16.450;2022-10-31T01:49:20;16.23;;;11.20;;
36817;SDS011;22761;51.542;16.450;2022-10-31T01:52:01;17.80;;;11.25;;
36817;SDS011;22761;51.542;16.450;2022-10-31T01:54:30;17.60;;;9.93;;
36817;SDS011;22761;51.542;16.450;2022-10-31T01:57:00;13.50;;;9.70;;
36817;SDS011;22761;51.542;16.450;2022-10-31T01:59:32;11.97;;;9.00;;
36817;SDS011;22761;51.542;16.450;2022-10-31T02:02:02;13.07;;;8.13;;
36817;SDS011;22761;51.542;16.450;2022-10-31T02:04:29;11.70;;;7.53;;
36817;SDS011;22761;51.542;16.450;2022-10-31T02:07:06;13.23;;;9.20;;
36817;SDS011;22761;51.542;16.450;2022-10-31T02:09:41;17.57;;;10.40;;
36817;SDS011;22761;51.542;16.450;2022-10-31T02:12:11;14.37;;;9.90;;
36817;SDS011;22761;51.542;16.450;2022-10-31T02:14:40;13.83;;;9.80;;
36817;SDS011;22761;51.542;16.450;2022-10-31T02:17:07;10.43;;;8.00;;
36817;SDS011;22761;51.542;16.450;2022-10-31T02:19:45;12.87;;;8.27;;
36817;SDS011;22761;51.542;16.450;2022-10-31T02:22:40;11.57;;;8.10;;
36817;SDS011;22761;51.542;16.450;2022-10-31T02:31:33;14.03;;;7.43;;
36817;SDS011;22761;51.542;16.450;2022-10-31T02:34:25;9.77;;;6.97;;
36817;SDS011;22761;51.542;16.450;2022-10-31T02:37:14;12.60;;;7.53;;
36817;SDS011;22761;51.542;16.450;2022-10-31T02:39:49;9.50;;;6.43;;
36817;SDS011;22761;51.542;16.450;2022-10-31T02:42:41;12.43;;;7.47;;
36817;SDS011;22761;51.542;16.450;2022-10-31T02:45:33;9.40;;;6.67;;
36817;SDS011;22761;51.542;16.450;2022-10-31T02:48:05;8.13;;;6.17;;
36817;SDS011;22761;51.542;16.450;2022-10-31T02:50:42;7.55;;;5.20;;
36817;SDS011;22761;51.542;16.450;2022-10-31T02:53:14;7.23;;;5.47;;
36817;SDS011;22761;51.542;16.450;2022-10-31T02:55:44;9.27;;;5.50;;
36817;SDS011;22761;51.542;16.450;2022-10-31T02:58:16;8.13;;;5.60;;
36817;SDS011;22761;51.542;16.450;2022-10-31T03:00:56;8.60;;;5.73;;
36817;SDS011;22761;51.542;16.450;2022-10-31T03:04:05;7.40;;;5.80;;
36817;SDS011;22761;51.542;16.450;2022-10-31T03:06:52;10.63;;;6.67;;
36817;SDS011;22761;51.542;16.450;2022-10-31T03:09:26;10.10;;;6.00;;
36817;SDS011;22761;51.542;16.450;2022-10-31T03:12:13;10.07;;;6.67;;
36817;SDS011;22761;51.542;16.450;2022-10-31T03:15:09;9.03;;;6.60;;
36817;SDS011;22761;51.542;16.450;2022-10-31T03:18:29;7.90;;;6.17;;
36817;SDS011;22761;51.542;16.450;2022-10-31T03:20:20;11.40;;;6.87;;
36817;SDS011;22761;51.542;16.450;2022-10-31T03:22:51;9.50;;;6.27;;
36817;SDS011;22761;51.542;16.450;2022-10-31T03:25:21;8.77;;;6.43;;
36817;SDS011;22761;51.542;16.450;2022-10-31T03:27:49;9.47;;;6.33;;
36817;SDS011;22761;51.542;16.450;2022-10-31T03:30:19;9.75;;;6.67;;
36817;SDS011;22761;51.542;16.450;2022-10-31T03:32:49;13.83;;;8.23;;
36817;SDS011;22761;51.542;16.450;2022-10-31T03:35:23;11.67;;;7.20;;
36817;SDS011;22761;51.542;16.450;2022-10-31T03:37:53;11.53;;;7.57;;
36817;SDS011;22761;51.542;16.450;2022-10-31T03:40:21;11.13;;;7.57;;
36817;SDS011;22761;51.542;16.450;2022-10-31T03:43:00;14.47;;;8.40;;
36817;SDS011;22761;51.542;16.450;2022-10-31T03:45:35;11.33;;;7.53;;
36817;SDS011;22761;51.542;16.450;2022-10-31T03:48:07;12.00;;;8.50;;
36817;SDS011;22761;51.542;16.450;2022-10-31T03:53:34;12.88;;;8.65;;
36817;SDS011;22761;51.542;16.450;2022-10-31T03:56:22;17.13;;;8.70;;
36817;SDS011;22761;51.542;16.450;2022-10-31T03:59:05;15.23;;;9.30;;
36817;SDS011;22761;51.542;16.450;2022-10-31T04:01:41;18.33;;;10.77;;
36817;SDS011;22761;51.542;16.450;2022-10-31T04:04:12;13.07;;;8.77;;
36817;SDS011;22761;51.542;16.450;2022-10-31T04:06:42;13.90;;;9.07;;
36817;SDS011;22761;51.542;16.450;2022-10-31T04:09:13;10.17;;;7.90;;
36817;SDS011;22761;51.542;16.450;2022-10-31T04:11:46;13.00;;;7.17;;
36817;SDS011;22761;51.542;16.450;2022-10-31T04:14:35;9.50;;;7.10;;
36817;SDS011;22761;51.542;16.450;2022-10-31T04:17:07;12.63;;;7.80;;
36817;SDS011;22761;51.542;16.450;2022-10-31T04:19:40;10.83;;;7.63;;
36817;SDS011;22761;51.542;16.450;2022-10-31T04:22:07;13.77;;;8.50;;
36817;SDS011;22761;51.542;16.450;2022-10-31T04:24:34;17.43;;;8.53;;
36817;SDS011;22761;51.542;16.450;2022-10-31T04:27:02;10.93;;;8.73;;
36817;SDS011;22761;51.542;16.450;2022-10-31T04:29:30;13.77;;;9.20;;
36817;SDS011;22761;51.542;16.450;2022-10-31T04:31:57;14.93;;;9.50;;
36817;SDS011;22761;51.542;16.450;2022-10-31T04:34:24;14.57;;;9.33;;
36817;SDS011;22761;51.542;16.450;2022-10-31T04:36:53;12.77;;;8.10;;
36817;SDS011;22761;51.542;16.450;2022-10-31T04:39:21;15.80;;;8.70;;
36817;SDS011;22761;51.542;16.450;2022-10-31T04:41:50;12.87;;;8.57;;
36817;SDS011;22761;51.542;16.450;2022-10-31T04:44:18;10.23;;;7.37;;
36817;SDS011;22761;51.542;16.450;2022-10-31T04:46:47;13.05;;;8.50;;
36817;SDS011;22761;51.542;16.450;2022-10-31T04:49:16;10.83;;;7.47;;
36817;SDS011;22761;51.542;16.450;2022-10-31T04:51:43;14.97;;;8.10;;
36817;SDS011;22761;51.542;16.450;2022-10-31T04:54:12;12.97;;;8.10;;
36817;SDS011;22761;51.542;16.450;2022-10-31T04:56:57;15.80;;;8.23;;
36817;SDS011;22761;51.542;16.450;2022-10-31T04:59:25;13.10;;;8.47;;
36817;SDS011;22761;51.542;16.450;2022-10-31T05:01:53;15.60;;;8.43;;
36817;SDS011;22761;51.542;16.450;2022-10-31T05:04:22;15.57;;;8.60;;
36817;SDS011;22761;51.542;16.450;2022-10-31T05:06:50;12.20;;;8.27;;
36817;SDS011;22761;51.542;16.450;2022-10-31T05:09:18;13.27;;;8.20;;
36817;SDS011;22761;51.542;16.450;2022-10-31T05:11:46;13.90;;;9.40;;
36817;SDS011;22761;51.542;16.450;2022-10-31T05:14:18;12.57;;;8.47;;
36817;SDS011;22761;51.542;16.450;2022-10-31T05:17:03;14.23;;;10.17;;
36817;SDS011;22761;51.542;16.450;2022-10-31T05:19:37;13.30;;;9.13;;
36817;SDS011;22761;51.542;16.450;2022-10-31T05:22:12;14.23;;;8.63;;
36817;SDS011;22761;51.542;16.450;2022-10-31T05:24:39;14.63;;;9.53;;
36817;SDS011;22761;51.542;16.450;2022-10-31T05:27:09;14.78;;;8.83;;
36817;SDS011;22761;51.542;16.450;2022-10-31T05:29:36;15.33;;;9.43;;
36817;SDS011;22761;51.542;16.450;2022-10-31T05:32:03;14.40;;;9.60;;
36817;SDS011;22761;51.542;16.450;2022-10-31T05:34:41;16.83;;;9.30;;
36817;SDS011;22761;51.542;16.450;2022-10-31T05:37:13;17.63;;;10.07;;
36817;SDS011;22761;51.542;16.450;2022-10-31T05:39:41;19.23;;;9.53;;
36817;SDS011;22761;51.542;16.450;2022-10-31T05:42:11;12.97;;;9.10;;
36817;SDS011;22761;51.542;16.450;2022-10-31T05:44:38;13.00;;;9.67;;
36817;SDS011;22761;51.542;16.450;2022-10-31T05:47:16;16.73;;;10.57;;
36817;SDS011;22761;51.542;16.450;2022-10-31T05:49:54;15.23;;;10.10;;
36817;SDS011;22761;51.542;16.450;2022-10-31T05:52:41;20.57;;;14.70;;
36817;SDS011;22761;51.542;16.450;2022-10-31T05:55:19;19.83;;;13.57;;
36817;SDS011;22761;51.542;16.450;2022-10-31T05:57:48;13.40;;;9.43;;
36817;SDS011;22761;51.542;16.450;2022-10-31T06:00:16;15.40;;;9.73;;
36817;SDS011;22761;51.542;16.450;2022-10-31T06:02:47;15.53;;;10.40;;
36817;SDS011;22761;51.542;16.450;2022-10-31T06:05:23;10.67;;;8.60;;
36817;SDS011;22761;51.542;16.450;2022-10-31T06:07:52;13.10;;;7.53;;
36817;SDS011;22761;51.542;16.450;2022-10-31T06:10:20;13.07;;;8.63;;
36817;SDS011;22761;51.542;16.450;2022-10-31T06:12:49;13.60;;;8.03;;
36817;SDS011;22761;51.542;16.450;2022-10-31T06:15:21;14.63;;;8.97;;
36817;SDS011;22761;51.542;16.450;2022-10-31T06:17:58;11.43;;;8.57;;
36817;SDS011;22761;51.542;16.450;2022-10-31T06:20:36;14.20;;;8.70;;
36817;SDS011;22761;51.542;16.450;2022-10-31T06:23:04;13.20;;;8.70;;
36817;SDS011;22761;51.542;16.450;2022-10-31T06:25:32;34.53;;;29.73;;
36817;SDS011;22761;51.542;16.450;2022-10-31T06:28:00;15.80;;;10.73;;
36817;SDS011;22761;51.542;16.450;2022-10-31T06:30:31;14.57;;;8.63;;
36817;SDS011;22761;51.542;16.450;2022-10-31T06:33:05;14.40;;;10.07;;
36817;SDS011;22761;51.542;16.450;2022-10-31T06:35:34;12.63;;;7.87;;
36817;SDS011;22761;51.542;16.450;2022-10-31T06:38:01;11.90;;;8.67;;
36817;SDS011;22761;51.542;16.450;2022-10-31T06:40:29;14.10;;;8.57;;
36817;SDS011;22761;51.542;16.450;2022-10-31T06:43:04;14.17;;;9.07;;
36817;SDS011;22761;51.542;16.450;2022-10-31T06:45:32;12.20;;;8.23;;
36817;SDS011;22761;51.542;16.450;2022-10-31T06:48:05;11.70;;;8.53;;
36817;SDS011;22761;51.542;16.450;2022-10-31T06:50:34;17.40;;;10.85;;
36817;SDS011;22761;51.542;16.450;2022-10-31T06:53:01;15.73;;;11.33;;
36817;SDS011;22761;51.542;16.450;2022-10-31T06:55:28;14.80;;;10.83;;
36817;SDS011;22761;51.542;16.450;2022-10-31T06:57:56;14.37;;;9.77;;
36817;SDS011;22761;51.542;16.450;2022-10-31T07:00:26;13.20;;;10.28;;
36817;SDS011;22761;51.542;16.450;2022-10-31T07:02:58;12.80;;;8.83;;
36817;SDS011;22761;51.542;16.450;2022-10-31T07:05:28;13.07;;;9.20;;
36817;SDS011;22761;51.542;16.450;2022-10-31T07:07:58;16.70;;;9.60;;
36817;SDS011;22761;51.542;16.450;2022-10-31T07:10:28;18.67;;;10.23;;
36817;SDS011;22761;51.542;16.450;2022-10-31T07:13:00;15.17;;;10.10;;
36817;SDS011;22761;51.542;16.450;2022-10-31T07:15:33;13.63;;;9.87;;
36817;SDS011;22761;51.542;16.450;2022-10-31T07:18:03;12.90;;;9.73;;
36817;SDS011;22761;51.542;16.450;2022-10-31T07:20:34;15.27;;;9.73;;
36817;SDS011;22761;51.542;16.450;2022-10-31T07:23:02;14.03;;;10.30;;
36817;SDS011;22761;51.542;16.450;2022-10-31T07:25:30;27.80;;;19.33;;
36817;SDS011;22761;51.542;16.450;2022-10-31T07:28:05;26.57;;;18.67;;
36817;SDS011;22761;51.542;16.450;2022-10-31T07:30:33;27.17;;;19.97;;
36817;SDS011;22761;51.542;16.450;2022-10-31T07:33:01;31.07;;;21.30;;
36817;SDS011;22761;51.542;16.450;2022-10-31T07:35:36;20.60;;;14.73;;
36817;SDS011;22761;51.542;16.450;2022-10-31T07:38:07;19.63;;;15.40;;
36817;SDS011;22761;51.542;16.450;2022-10-31T07:40:37;16.40;;;12.37;;
36817;SDS011;22761;51.542;16.450;2022-10-31T07:43:05;17.07;;;11.20;;
36817;SDS011;22761;51.542;16.450;2022-10-31T07:45:42;15.67;;;10.70;;
36817;SDS011;22761;51.542;16.450;2022-10-31T07:48:32;15.37;;;10.63;;
36817;SDS011;22761;51.542;16.450;2022-10-31T07:51:17;12.90;;;9.87;;
36817;SDS011;22761;51.542;16.450;2022-10-31T07:54:03;15.10;;;9.47;;
36817;SDS011;22761;51.542;16.450;2022-10-31T07:56:31;12.63;;;9.00;;
36817;SDS011;22761;51.542;16.450;2022-10-31T07:58:59;17.83;;;10.00;;
36817;SDS011;22761;51.542;16.450;2022-10-31T08:01:26;14.33;;;10.57;;
36817;SDS011;22761;51.542;16.450;2022-10-31T08:03:55;16.80;;;10.27;;
36817;SDS011;22761;51.542;16.450;2022-10-31T08:06:24;19.40;;;10.03;;
36817;SDS011;22761;51.542;16.450;2022-10-31T08:09:05;17.17;;;10.68;;
36817;SDS011;22761;51.542;16.450;2022-10-31T08:11:33;18.03;;;10.63;;
36817;SDS011;22761;51.542;16.450;2022-10-31T08:14:01;15.88;;;11.50;;
36817;SDS011;22761;51.542;16.450;2022-10-31T08:16:28;18.20;;;10.58;;
36817;SDS011;22761;51.542;16.450;2022-10-31T08:18:57;17.52;;;11.65;;
36817;SDS011;22761;51.542;16.450;2022-10-31T08:21:24;20.43;;;11.83;;
36817;SDS011;22761;51.542;16.450;2022-10-31T08:23:51;15.97;;;11.30;;
36817;SDS011;22761;51.542;16.450;2022-10-31T08:26:20;17.37;;;11.00;;
36817;SDS011;22761;51.542;16.450;2022-10-31T08:28:50;17.35;;;10.10;;
36817;SDS011;22761;51.542;16.450;2022-10-31T08:31:19;17.90;;;10.43;;
36817;SDS011;22761;51.542;16.450;2022-10-31T08:33:47;18.15;;;11.08;;
36817;SDS011;22761;51.542;16.450;2022-10-31T08:36:17;31.07;;;19.02;;
36817;SDS011;22761;51.542;16.450;2022-10-31T08:38:50;22.10;;;14.13;;
36817;SDS011;22761;51.542;16.450;2022-10-31T08:41:18;20.25;;;12.85;;
36817;SDS011;22761;51.542;16.450;2022-10-31T08:43:46;19.62;;;13.95;;
36817;SDS011;22761;51.542;16.450;2022-10-31T08:46:15;17.77;;;10.75;;
36817;SDS011;22761;51.542;16.450;2022-10-31T08:48:43;16.40;;;9.70;;
36817;SDS011;22761;51.542;16.450;2022-10-31T08:51:12;16.40;;;9.38;;
36817;SDS011;22761;51.542;16.450;2022-10-31T08:53:40;19.35;;;9.68;;
36817;SDS011;22761;51.542;16.450;2022-10-31T08:56:25;14.75;;;8.63;;
36817;SDS011;22761;51.542;16.450;2022-10-31T08:58:53;16.32;;;7.22;;
36817;SDS011;22761;51.542;16.450;2022-10-31T09:01:22;15.85;;;6.97;;
36817;SDS011;22761;51.542;16.450;2022-10-31T09:03:49;12.98;;;6.42;;
36817;SDS011;22761;51.542;16.450;2022-10-31T09:06:16;15.15;;;7.05;;
36817;SDS011;22761;51.542;16.450;2022-10-31T09:08:46;11.60;;;6.00;;
36817;SDS011;22761;51.542;16.450;2022-10-31T09:11:13;11.70;;;5.90;;
36817;SDS011;22761;51.542;16.450;2022-10-31T09:13:48;15.28;;;6.60;;
36817;SDS011;22761;51.542;16.450;2022-10-31T09:16:34;15.40;;;5.97;;
36817;SDS011;22761;51.542;16.450;2022-10-31T09:19:02;10.55;;;6.00;;
36817;SDS011;22761;51.542;16.450;2022-10-31T09:21:29;11.60;;;6.50;;
36817;SDS011;22761;51.542;16.450;2022-10-31T09:23:58;11.65;;;5.97;;
36817;SDS011;22761;51.542;16.450;2022-10-31T09:26:25;12.85;;;6.05;;
36817;SDS011;22761;51.542;16.450;2022-10-31T09:28:57;12.55;;;6.33;;
36817;SDS011;22761;51.542;16.450;2022-10-31T09:31:25;12.25;;;5.37;;
36817;SDS011;22761;51.542;16.450;2022-10-31T09:33:56;12.73;;;5.60;;
36817;SDS011;22761;51.542;16.450;2022-10-31T09:36:40;9.55;;;5.65;;
36817;SDS011;22761;51.542;16.450;2022-10-31T09:39:13;12.18;;;6.10;;
36817;SDS011;22761;51.542;16.450;2022-10-31T09:44:50;12.95;;;6.28;;
36817;SDS011;22761;51.542;16.450;2022-10-31T09:47:05;10.65;;;6.62;;
36817;SDS011;22761;51.542;16.450;2022-10-31T09:52:32;16.37;;;6.90;;
36817;SDS011;22761;51.542;16.450;2022-10-31T09:55:02;10.65;;;6.72;;
36817;SDS011;22761;51.542;16.450;2022-10-31T09:57:33;14.63;;;6.65;;
36817;SDS011;22761;51.542;16.450;2022-10-31T10:00:03;12.33;;;6.55;;
36817;SDS011;22761;51.542;16.450;2022-10-31T10:02:37;12.90;;;6.97;;
36817;SDS011;22761;51.542;16.450;2022-10-31T10:05:11;14.93;;;6.33;;
36817;SDS011;22761;51.542;16.450;2022-10-31T10:10:43;14.13;;;6.42;;
36817;SDS011;22761;51.542;16.450;2022-10-31T10:13:24;11.12;;;7.03;;
36817;SDS011;22761;51.542;16.450;2022-10-31T10:15:56;13.88;;;7.47;;
36817;SDS011;22761;51.542;16.450;2022-10-31T10:24:28;17.00;;;7.53;;
36817;SDS011;22761;51.542;16.450;2022-10-31T10:27:27;11.30;;;6.85;;
36817;SDS011;22761;51.542;16.450;2022-10-31T10:30:07;16.10;;;7.30;;
36817;SDS011;22761;51.542;16.450;2022-10-31T10:32:49;14.55;;;7.25;;
36817;SDS011;22761;51.542;16.450;2022-10-31T10:41:20;19.17;;;7.17;;
36817;SDS011;22761;51.542;16.450;2022-10-31T10:43:50;11.48;;;7.05;;
36817;SDS011;22761;51.542;16.450;2022-10-31T10:46:28;11.00;;;6.75;;
36817;SDS011;22761;51.542;16.450;2022-10-31T10:49:45;12.35;;;6.60;;
36817;SDS011;22761;51.542;16.450;2022-10-31T10:52:27;14.13;;;6.30;;
36817;SDS011;22761;51.542;16.450;2022-10-31T11:00:26;15.93;;;6.37;;
36817;SDS011;22761;51.542;16.450;2022-10-31T11:02:57;14.40;;;5.90;;
36817;SDS011;22761;51.542;16.450;2022-10-31T11:05:30;12.28;;;6.62;;
36817;SDS011;22761;51.542;16.450;2022-10-31T11:08:03;14.07;;;6.28;;
36817;SDS011;22761;51.542;16.450;2022-10-31T11:10:32;12.85;;;6.53;;
36817;SDS011;22761;51.542;16.450;2022-10-31T11:16:02;15.15;;;5.92;;
36817;SDS011;22761;51.542;16.450;2022-10-31T11:18:34;9.33;;;5.60;;
36817;SDS011;22761;51.542;16.450;2022-10-31T11:21:17;14.75;;;6.00;;
36817;SDS011;22761;51.542;16.450;2022-10-31T11:23:48;12.07;;;5.97;;
36817;SDS011;22761;51.542;16.450;2022-10-31T11:26:19;9.23;;;5.55;;
36817;SDS011;22761;51.542;16.450;2022-10-31T11:28:57;13.75;;;6.17;;
36817;SDS011;22761;51.542;16.450;2022-10-31T11:31:25;12.25;;;6.10;;
36817;SDS011;22761;51.542;16.450;2022-10-31T11:33:57;16.73;;;6.92;;
36817;SDS011;22761;51.542;16.450;2022-10-31T11:36:30;12.13;;;5.72;;
36817;SDS011;22761;51.542;16.450;2022-10-31T11:39:04;10.38;;;6.20;;
36817;SDS011;22761;51.542;16.450;2022-10-31T11:41:37;12.43;;;6.40;;
36817;SDS011;22761;51.542;16.450;2022-10-31T11:44:20;12.78;;;6.17;;
36817;SDS011;22761;51.542;16.450;2022-10-31T11:46:53;11.22;;;6.00;;
36817;SDS011;22761;51.542;16.450;2022-10-31T11:49:34;13.13;;;6.25;;
36817;SDS011;22761;51.542;16.450;2022-10-31T11:52:21;10.30;;;6.15;;
36817;SDS011;22761;51.542;16.450;2022-10-31T11:54:58;11.40;;;5.90;;
36817;SDS011;22761;51.542;16.450;2022-10-31T11:57:42;12.18;;;5.97;;
36817;SDS011;22761;51.542;16.450;2022-10-31T12:00:49;11.65;;;6.35;;
36817;SDS011;22761;51.542;16.450;2022-10-31T12:03:28;8.70;;;5.75;;
36817;SDS011;22761;51.542;16.450;2022-10-31T12:05:53;18.55;;;6.42;;
36817;SDS011;22761;51.542;16.450;2022-10-31T12:08:25;13.58;;;5.33;;
36817;SDS011;22761;51.542;16.450;2022-10-31T12:17:00;17.12;;;6.80;;
36817;SDS011;22761;51.542;16.450;2022-10-31T12:22:22;12.37;;;6.67;;
36817;SDS011;22761;51.542;16.450;2022-10-31T12:28:03;10.28;;;6.03;;
36817;SDS011;22761;51.542;16.450;2022-10-31T12:36:49;16.07;;;6.70;;
36817;SDS011;22761;51.542;16.450;2022-10-31T12:46:02;14.78;;;6.65;;
36817;SDS011;22761;51.542;16.450;2022-10-31T12:48:37;13.32;;;6.50;;
36817;SDS011;22761;51.542;16.450;2022-10-31T12:51:40;12.47;;;6.30;;
36817;SDS011;22761;51.542;16.450;2022-10-31T13:00:00;10.55;;;6.47;;
36817;SDS011;22761;51.542;16.450;2022-10-31T13:05:44;12.78;;;6.85;;
36817;SDS011;22761;51.542;16.450;2022-10-31T13:08:26;12.47;;;6.35;;
36817;SDS011;22761;51.542;16.450;2022-10-31T13:11:05;14.45;;;6.87;;
36817;SDS011;22761;51.542;16.450;2022-10-31T13:16:20;11.43;;;6.80;;
36817;SDS011;22761;51.542;16.450;2022-10-31T13:19:00;13.95;;;6.47;;
36817;SDS011;22761;51.542;16.450;2022-10-31T13:22:09;14.03;;;6.78;;
36817;SDS011;22761;51.542;16.450;2022-10-31T13:27:57;15.65;;;6.28;;
36817;SDS011;22761;51.542;16.450;2022-10-31T13:30:46;13.05;;;6.15;;
36817;SDS011;22761;51.542;16.450;2022-10-31T13:33:16;15.13;;;6.33;;
36817;SDS011;22761;51.542;16.450;2022-10-31T13:38:52;13.70;;;6.62;;
36817;SDS011;22761;51.542;16.450;2022-10-31T13:41:38;17.52;;;7.17;;
36817;SDS011;22761;51.542;16.450;2022-10-31T13:44:24;16.07;;;7.10;;
36817;SDS011;22761;51.542;16.450;2022-10-31T13:46:55;15.50;;;7.60;;
36817;SDS011;22761;51.542;16.450;2022-10-31T13:54:42;16.27;;;7.25;;
36817;SDS011;22761;51.542;16.450;2022-10-31T13:57:19;16.45;;;7.47;;
36817;SDS011;22761;51.542;16.450;2022-10-31T14:00:00;14.68;;;6.90;;
36817;SDS011;22761;51.542;16.450;2022-10-31T14:02:34;15.03;;;6.53;;
36817;SDS011;22761;51.542;16.450;2022-10-31T14:05:03;19.98;;;7.53;;
36817;SDS011;22761;51.542;16.450;2022-10-31T14:07:44;17.75;;;7.37;;
36817;SDS011;22761;51.542;16.450;2022-10-31T14:10:21;14.05;;;7.05;;
36817;SDS011;22761;51.542;16.450;2022-10-31T14:15:42;15.28;;;9.35;;
36817;SDS011;22761;51.542;16.450;2022-10-31T14:18:43;13.50;;;7.58;;
36817;SDS011;22761;51.542;16.450;2022-10-31T14:23:58;15.50;;;7.58;;
36817;SDS011;22761;51.542;16.450;2022-10-31T14:31:38;14.05;;;7.25;;
36817;SDS011;22761;51.542;16.450;2022-10-31T14:45:46;18.27;;;10.95;;
36817;SDS011;22761;51.542;16.450;2022-10-31T14:48:43;12.47;;;10.25;;
36817;SDS011;22761;51.542;16.450;2022-10-31T14:51:14;19.50;;;11.50;;
36817;SDS011;22761;51.542;16.450;2022-10-31T14:53:52;17.65;;;11.38;;
36817;SDS011;22761;51.542;16.450;2022-10-31T14:56:37;16.60;;;11.97;;
36817;SDS011;22761;51.542;16.450;2022-10-31T14:59:04;15.35;;;9.88;;
36817;SDS011;22761;51.542;16.450;2022-10-31T15:01:48;15.43;;;8.78;;
36817;SDS011;22761;51.542;16.450;2022-10-31T15:04:34;13.58;;;7.75;;
36817;SDS011;22761;51.542;16.450;2022-10-31T15:07:04;19.70;;;7.80;;
36817;SDS011;22761;51.542;16.450;2022-10-31T15:09:37;13.95;;;6.80;;
36817;SDS011;22761;51.542;16.450;2022-10-31T15:12:24;15.78;;;6.55;;
36817;SDS011;22761;51.542;16.450;2022-10-31T15:14:57;13.78;;;7.37;;
36817;SDS011;22761;51.542;16.450;2022-10-31T15:17:44;11.65;;;6.53;;
36817;SDS011;22761;51.542;16.450;2022-10-31T15:20:25;13.93;;;7.10;;
36817;SDS011;22761;51.542;16.450;2022-10-31T15:22:57;13.08;;;6.80;;
36817;SDS011;22761;51.542;16.450;2022-10-31T15:25:27;10.53;;;6.80;;
36817;SDS011;22761;51.542;16.450;2022-10-31T15:27:57;12.75;;;7.03;;
36817;SDS011;22761;51.542;16.450;2022-10-31T15:30:26;13.78;;;7.95;;
36817;SDS011;22761;51.542;16.450;2022-10-31T15:32:55;16.80;;;8.35;;
36817;SDS011;22761;51.542;16.450;2022-10-31T15:35:23;14.03;;;7.37;;
36817;SDS011;22761;51.542;16.450;2022-10-31T15:37:54;11.35;;;6.45;;
36817;SDS011;22761;51.542;16.450;2022-10-31T15:40:24;14.87;;;6.15;;
36817;SDS011;22761;51.542;16.450;2022-10-31T15:43:00;10.23;;;5.70;;
36817;SDS011;22761;51.542;16.450;2022-10-31T15:45:30;10.82;;;5.97;;
36817;SDS011;22761;51.542;16.450;2022-10-31T15:47:59;9.33;;;5.60;;
36817;SDS011;22761;51.542;16.450;2022-10-31T15:50:35;15.32;;;7.40;;
36817;SDS011;22761;51.542;16.450;2022-10-31T15:53:27;11.88;;;7.10;;
36817;SDS011;22761;51.542;16.450;2022-10-31T15:55:54;14.20;;;7.75;;
36817;SDS011;22761;51.542;16.450;2022-10-31T15:58:27;14.30;;;7.53;;
36817;SDS011;22761;51.542;16.450;2022-10-31T16:01:03;11.43;;;6.95;;
36817;SDS011;22761;51.542;16.450;2022-10-31T16:03:33;15.40;;;6.87;;
36817;SDS011;22761;51.542;16.450;2022-10-31T16:06:02;13.88;;;6.95;;
36817;SDS011;22761;51.542;16.450;2022-10-31T16:13:57;12.30;;;6.50;;
36817;SDS011;22761;51.542;16.450;2022-10-31T16:16:28;10.80;;;6.37;;
36817;SDS011;22761;51.542;16.450;2022-10-31T16:18:57;14.45;;;6.60;;
36817;SDS011;22761;51.542;16.450;2022-10-31T16:24:01;12.25;;;6.25;;
36817;SDS011;22761;51.542;16.450;2022-10-31T16:26:31;10.98;;;5.85;;
36817;SDS011;22761;51.542;16.450;2022-10-31T16:29:00;12.15;;;7.30;;
36817;SDS011;22761;51.542;16.450;2022-10-31T16:31:38;12.13;;;6.30;;
36817;SDS011;22761;51.542;16.450;2022-10-31T16:34:17;15.95;;;7.22;;
36817;SDS011;22761;51.542;16.450;2022-10-31T16:36:47;11.20;;;6.72;;
36817;SDS011;22761;51.542;16.450;2022-10-31T16:39:15;14.28;;;6.83;;
36817;SDS011;22761;51.542;16.450;2022-10-31T16:41:45;12.58;;;6.33;;
36817;SDS011;22761;51.542;16.450;2022-10-31T16:44:21;11.38;;;6.40;;
36817;SDS011;22761;51.542;16.450;2022-10-31T16:49:43;9.93;;;6.05;;
36817;SDS011;22761;51.542;16.450;2022-10-31T16:52:14;11.63;;;6.55;;
36817;SDS011;22761;51.542;16.450;2022-10-31T16:54:42;14.87;;;7.40;;
36817;SDS011;22761;51.542;16.450;2022-10-31T16:57:14;13.68;;;7.60;;
36817;SDS011;22761;51.542;16.450;2022-10-31T16:59:48;14.90;;;7.35;;
36817;SDS011;22761;51.542;16.450;2022-10-31T17:02:20;12.55;;;6.75;;
36817;SDS011;22761;51.542;16.450;2022-10-31T17:04:48;12.03;;;6.95;;